sensor_id;sensor_type;location;lat;lon;timestamp;pressure;altitude;pressure_sealevel;temperature;humidity
7966;BME280;4028;43.272;26.932;2023-04-30T00:02:10;98848.69;;;10.06;100.00
7966;BME280;4028;43.272;26.932;2023-04-30T00:04:35;98845.69;;;9.92;100.00
7966;BME280;4028;43.272;26.932;2023-04-30T00:07:01;98825.91;;;9.78;100.00
7966;BME280;4028;43.272;26.932;2023-04-30T00:09:27;98837.25;;;9.88;100.00
7966;BME280;4028;43.272;26.932;2023-04-30T00:11:52;98841.41;;;9.90;100.00
7966;BME280;4028;43.272;26.932;2023-04-30T00:14:18;98846.84;;;9.89;100.00
7966;BME280;4028;43.272;26.932;2023-04-30T00:16:43;98841.69;;;9.87;100.00
7966;BME280;4028;43.272;26.932;2023-04-30T00:19:08;98841.34;;;9.73;100.00
7966;BME280;4028;43.272;26.932;2023-04-30T00:21:34;98841.53;;;9.61;100.00
7966;BME280;4028;43.272;26.932;2023-04-30T00:24:00;98840.56;;;9.62;100.00
7966;BME280;4028;43.272;26.932;2023-04-30T00:26:26;98848.91;;;9.58;100.00
7966;BME280;4028;43.272;26.932;2023-04-30T00:28:51;98850.59;;;9.59;100.00
7966;BME280;4028;43.272;26.932;2023-04-30T00:31:17;98843.94;;;9.45;100.00
7966;BME280;4028;43.272;26.932;2023-04-30T00:33:42;98844.94;;;9.44;100.00
7966;BME280;4028;43.272;26.932;2023-04-30T00:36:07;98841.47;;;9.44;100.00
7966;BME280;4028;43.272;26.932;2023-04-30T00:38:33;98837.88;;;9.25;100.00
7966;BME280;4028;43.272;26.932;2023-04-30T00:40:59;98839.69;;;9.25;100.00
7966;BME280;4028;43.272;26.932;2023-04-30T00:43:25;98819.72;;;9.22;100.00
7966;BME280;4028;43.272;26.932;2023-04-30T00:45:50;98829.28;;;9.23;100.00
7966;BME280;4028;43.272;26.932;2023-04-30T00:48:16;98829.84;;;9.27;100.00
7966;BME280;4028;43.272;26.932;2023-04-30T00:50:43;98832.47;;;9.27;100.00
7966;BME280;4028;43.272;26.932;2023-04-30T00:53:12;98832.50;;;9.17;100.00
7966;BME280;4028;43.272;26.932;2023-04-30T00:55:39;98838.47;;;9.19;100.00
7966;BME280;4028;43.272;26.932;2023-04-30T00:58:06;98814.88;;;9.08;100.00
7966;BME280;4028;43.272;26.932;2023-04-30T01:00:33;98827.78;;;9.11;100.00
7966;BME280;4028;43.272;26.932;2023-04-30T01:02:59;98829.06;;;9.07;100.00
7966;BME280;4028;43.272;26.932;2023-04-30T01:05:25;98828.34;;;9.05;100.00
7966;BME280;4028;43.272;26.932;2023-04-30T01:07:51;98836.53;;;9.11;100.00
7966;BME280;4028;43.272;26.932;2023-04-30T01:10:18;98830.44;;;9.01;100.00
7966;BME280;4028;43.272;26.932;2023-04-30T01:13:25;98822.66;;;9.00;100.00
7966;BME280;4028;43.272;26.932;2023-04-30T01:16:00;98833.22;;;9.00;100.00
7966;BME280;4028;43.272;26.932;2023-04-30T01:18:42;98810.47;;;8.79;100.00
7966;BME280;4028;43.272;26.932;2023-04-30T01:21:09;98833.78;;;9.03;100.00
7966;BME280;4028;43.272;26.932;2023-04-30T01:29:07;98821.81;;;9.09;100.00
7966;BME280;4028;43.272;26.932;2023-04-30T01:31:34;98820.56;;;9.03;100.00
7966;BME280;4028;43.272;26.932;2023-04-30T01:34:00;98827.94;;;8.90;100.00
7966;BME280;4028;43.272;26.932;2023-04-30T01:41:42;98819.66;;;8.75;100.00
7966;BME280;4028;43.272;26.932;2023-04-30T01:47:15;98824.38;;;8.72;100.00
7966;BME280;4028;43.272;26.932;2023-04-30T01:52:49;98814.78;;;8.71;100.00
7966;BME280;4028;43.272;26.932;2023-04-30T01:55:27;98812.84;;;8.73;100.00
7966;BME280;4028;43.272;26.932;2023-04-30T01:58:02;98820.47;;;8.76;100.00
7966;BME280;4028;43.272;26.932;2023-04-30T02:00:29;98813.53;;;8.75;100.00
7966;BME280;4028;43.272;26.932;2023-04-30T02:02:55;98809.09;;;8.75;100.00
7966;BME280;4028;43.272;26.932;2023-04-30T02:05:21;98810.19;;;8.63;100.00
7966;BME280;4028;43.272;26.932;2023-04-30T02:07:48;98816.31;;;8.64;100.00
7966;BME280;4028;43.272;26.932;2023-04-30T02:10:16;98817.69;;;8.58;100.00
7966;BME280;4028;43.272;26.932;2023-04-30T02:12:42;98810.34;;;8.52;100.00
7966;BME280;4028;43.272;26.932;2023-04-30T02:15:08;98809.38;;;8.53;100.00
7966;BME280;4028;43.272;26.932;2023-04-30T02:17:33;98813.00;;;8.52;100.00
7966;BME280;4028;43.272;26.932;2023-04-30T02:19:59;98814.78;;;8.51;100.00
7966;BME280;4028;43.272;26.932;2023-04-30T02:22:25;98802.72;;;8.49;100.00
7966;BME280;4028;43.272;26.932;2023-04-30T02:24:51;98807.72;;;8.52;100.00
7966;BME280;4028;43.272;26.932;2023-04-30T02:27:20;98799.66;;;8.53;100.00
7966;BME280;4028;43.272;26.932;2023-04-30T02:29:46;98802.72;;;8.49;100.00
7966;BME280;4028;43.272;26.932;2023-04-30T02:32:11;98789.94;;;8.34;100.00
7966;BME280;4028;43.272;26.932;2023-04-30T02:34:37;98789.94;;;8.34;100.00
7966;BME280;4028;43.272;26.932;2023-04-30T02:37:02;98802.28;;;8.44;100.00
7966;BME280;4028;43.272;26.932;2023-04-30T02:39:28;98800.91;;;8.49;100.00
7966;BME280;4028;43.272;26.932;2023-04-30T02:41:53;98799.38;;;8.47;100.00
7966;BME280;4028;43.272;26.932;2023-04-30T02:44:19;98797.84;;;8.34;100.00
7966;BME280;4028;43.272;26.932;2023-04-30T02:46:44;98804.88;;;8.34;100.00
7966;BME280;4028;43.272;26.932;2023-04-30T02:49:10;98805.75;;;8.34;100.00
7966;BME280;4028;43.272;26.932;2023-04-30T02:51:35;98800.16;;;8.28;100.00
7966;BME280;4028;43.272;26.932;2023-04-30T02:54:02;98809.09;;;8.37;100.00
7966;BME280;4028;43.272;26.932;2023-04-30T02:56:27;98810.03;;;8.36;100.00
7966;BME280;4028;43.272;26.932;2023-04-30T02:58:53;98809.94;;;8.37;100.00
7966;BME280;4028;43.272;26.932;2023-04-30T03:01:18;98796.28;;;8.22;100.00
7966;BME280;4028;43.272;26.932;2023-04-30T03:03:44;98811.53;;;8.28;100.00
7966;BME280;4028;43.272;26.932;2023-04-30T03:06:09;98804.91;;;8.24;100.00
7966;BME280;4028;43.272;26.932;2023-04-30T03:08:35;98797.53;;;8.28;100.00
7966;BME280;4028;43.272;26.932;2023-04-30T03:11:00;98794.59;;;8.12;100.00
7966;BME280;4028;43.272;26.932;2023-04-30T03:13:26;98804.75;;;8.26;100.00
7966;BME280;4028;43.272;26.932;2023-04-30T03:15:59;98804.75;;;8.16;100.00
7966;BME280;4028;43.272;26.932;2023-04-30T03:18:26;98815.53;;;8.13;100.00
7966;BME280;4028;43.272;26.932;2023-04-30T03:20:51;98798.78;;;8.14;100.00
7966;BME280;4028;43.272;26.932;2023-04-30T03:23:17;98811.97;;;8.14;100.00
7966;BME280;4028;43.272;26.932;2023-04-30T03:25:42;98817.50;;;8.11;100.00
7966;BME280;4028;43.272;26.932;2023-04-30T03:28:08;98815.69;;;8.12;100.00
7966;BME280;4028;43.272;26.932;2023-04-30T03:30:33;98826.78;;;8.05;100.00
7966;BME280;4028;43.272;26.932;2023-04-30T03:32:59;98815.41;;;8.05;100.00
7966;BME280;4028;43.272;26.932;2023-04-30T03:35:25;98827.34;;;8.19;100.00
7966;BME280;4028;43.272;26.932;2023-04-30T03:37:50;98824.59;;;8.30;100.00
7966;BME280;4028;43.272;26.932;2023-04-30T03:40:16;98831.84;;;8.47;100.00
7966;BME280;4028;43.272;26.932;2023-04-30T03:42:41;98827.97;;;8.51;100.00
7966;BME280;4028;43.272;26.932;2023-04-30T03:45:07;98836.56;;;8.63;100.00
7966;BME280;4028;43.272;26.932;2023-04-30T03:47:33;98834.09;;;8.71;100.00
7966;BME280;4028;43.272;26.932;2023-04-30T03:49:59;98830.31;;;8.93;100.00
7966;BME280;4028;43.272;26.932;2023-04-30T03:52:24;98819.34;;;8.98;100.00
7966;BME280;4028;43.272;26.932;2023-04-30T03:54:50;98828.47;;;9.23;100.00
7966;BME280;4028;43.272;26.932;2023-04-30T03:57:16;98838.00;;;9.71;100.00
7966;BME280;4028;43.272;26.932;2023-04-30T03:59:41;98833.06;;;10.76;100.00
7966;BME280;4028;43.272;26.932;2023-04-30T04:02:07;98835.75;;;11.54;100.00
7966;BME280;4028;43.272;26.932;2023-04-30T04:04:33;98813.94;;;11.94;99.80
7966;BME280;4028;43.272;26.932;2023-04-30T04:06:58;98828.47;;;12.41;93.64
7966;BME280;4028;43.272;26.932;2023-04-30T04:09:24;98834.00;;;13.29;85.21
7966;BME280;4028;43.272;26.932;2023-04-30T04:11:50;98826.00;;;14.55;72.43
7966;BME280;4028;43.272;26.932;2023-04-30T04:14:15;98830.69;;;15.81;62.98
7966;BME280;4028;43.272;26.932;2023-04-30T04:16:41;98827.59;;;16.86;56.52
7966;BME280;4028;43.272;26.932;2023-04-30T04:19:07;98809.66;;;17.64;51.94
7966;BME280;4028;43.272;26.932;2023-04-30T04:21:33;98823.25;;;18.58;49.21
7966;BME280;4028;43.272;26.932;2023-04-30T04:23:58;98826.41;;;19.15;46.01
7966;BME280;4028;43.272;26.932;2023-04-30T04:26:24;98819.16;;;19.55;44.89
7966;BME280;4028;43.272;26.932;2023-04-30T04:28:50;98830.63;;;19.95;43.38
7966;BME280;4028;43.272;26.932;2023-04-30T04:31:17;98832.97;;;19.59;43.32
7966;BME280;4028;43.272;26.932;2023-04-30T04:33:43;98831.28;;;18.65;44.65
7966;BME280;4028;43.272;26.932;2023-04-30T04:36:08;98838.84;;;17.59;47.03
7966;BME280;4028;43.272;26.932;2023-04-30T04:38:34;98837.19;;;16.59;49.54
7966;BME280;4028;43.272;26.932;2023-04-30T04:40:59;98835.38;;;15.64;52.19
7966;BME280;4028;43.272;26.932;2023-04-30T04:43:25;98832.38;;;14.69;56.54
7966;BME280;4028;43.272;26.932;2023-04-30T04:45:50;98826.16;;;13.91;61.02
7966;BME280;4028;43.272;26.932;2023-04-30T04:48:16;98837.97;;;13.33;65.87
7966;BME280;4028;43.272;26.932;2023-04-30T04:50:42;98835.31;;;12.84;70.82
7966;BME280;4028;43.272;26.932;2023-04-30T04:53:07;98840.78;;;12.50;73.61
7966;BME280;4028;43.272;26.932;2023-04-30T04:55:33;98838.50;;;12.13;77.39
7966;BME280;4028;43.272;26.932;2023-04-30T04:57:59;98836.88;;;11.78;84.47
7966;BME280;4028;43.272;26.932;2023-04-30T05:00:24;98839.47;;;11.69;85.78
7966;BME280;4028;43.272;26.932;2023-04-30T05:02:50;98838.09;;;11.57;88.84
7966;BME280;4028;43.272;26.932;2023-04-30T05:05:15;98826.16;;;11.27;90.09
7966;BME280;4028;43.272;26.932;2023-04-30T05:07:41;98821.88;;;11.08;95.49
7966;BME280;4028;43.272;26.932;2023-04-30T05:10:07;98840.34;;;11.00;97.89
7966;BME280;4028;43.272;26.932;2023-04-30T05:12:33;98841.50;;;10.98;99.86
7966;BME280;4028;43.272;26.932;2023-04-30T05:15:01;98838.47;;;10.92;100.00
7966;BME280;4028;43.272;26.932;2023-04-30T05:17:27;98828.25;;;10.98;100.00
7966;BME280;4028;43.272;26.932;2023-04-30T05:19:52;98841.97;;;11.19;100.00
7966;BME280;4028;43.272;26.932;2023-04-30T05:22:18;98831.19;;;11.12;98.30
7966;BME280;4028;43.272;26.932;2023-04-30T05:24:43;98830.19;;;11.13;100.00
7966;BME280;4028;43.272;26.932;2023-04-30T05:27:09;98853.31;;;11.29;99.30
7966;BME280;4028;43.272;26.932;2023-04-30T05:29:34;98854.38;;;11.36;98.76
7966;BME280;4028;43.272;26.932;2023-04-30T05:32:00;98846.25;;;11.38;100.00
7966;BME280;4028;43.272;26.932;2023-04-30T05:34:26;98857.41;;;11.50;99.38
7966;BME280;4028;43.272;26.932;2023-04-30T05:36:51;98861.78;;;11.59;97.25
7966;BME280;4028;43.272;26.932;2023-04-30T05:39:17;98861.56;;;11.78;97.95
7966;BME280;4028;43.272;26.932;2023-04-30T05:41:43;98864.72;;;12.16;96.58
7966;BME280;4028;43.272;26.932;2023-04-30T05:44:08;98856.72;;;12.66;90.21
7966;BME280;4028;43.272;26.932;2023-04-30T05:46:34;98855.56;;;13.10;88.04
7966;BME280;4028;43.272;26.932;2023-04-30T05:49:00;98861.97;;;13.72;82.80
7966;BME280;4028;43.272;26.932;2023-04-30T05:51:25;98837.59;;;14.31;75.74
7966;BME280;4028;43.272;26.932;2023-04-30T05:53:52;98860.69;;;14.93;68.16
7966;BME280;4028;43.272;26.932;2023-04-30T05:56:18;98862.91;;;15.27;66.04
7966;BME280;4028;43.272;26.932;2023-04-30T05:58:43;98855.34;;;15.98;63.46
7966;BME280;4028;43.272;26.932;2023-04-30T06:01:09;98857.56;;;16.45;60.40
7966;BME280;4028;43.272;26.932;2023-04-30T06:03:35;98865.13;;;16.63;60.53
7966;BME280;4028;43.272;26.932;2023-04-30T06:06:02;98851.88;;;16.70;58.56
7966;BME280;4028;43.272;26.932;2023-04-30T06:08:28;98856.94;;;17.01;56.73
7966;BME280;4028;43.272;26.932;2023-04-30T06:10:54;98855.06;;;17.01;57.22
7966;BME280;4028;43.272;26.932;2023-04-30T06:13:21;98860.28;;;17.09;56.43
7966;BME280;4028;43.272;26.932;2023-04-30T06:15:47;98866.72;;;17.43;55.46
7966;BME280;4028;43.272;26.932;2023-04-30T06:18:12;98858.75;;;17.78;55.39
7966;BME280;4028;43.272;26.932;2023-04-30T06:20:38;98863.34;;;17.90;53.66
7966;BME280;4028;43.272;26.932;2023-04-30T06:23:04;98872.38;;;18.24;51.67
7966;BME280;4028;43.272;26.932;2023-04-30T06:25:29;98857.63;;;18.48;51.02
7966;BME280;4028;43.272;26.932;2023-04-30T06:27:55;98862.69;;;18.84;50.00
7966;BME280;4028;43.272;26.932;2023-04-30T06:30:20;98867.03;;;19.12;48.25
7966;BME280;4028;43.272;26.932;2023-04-30T06:32:46;98863.13;;;19.08;48.14
7966;BME280;4028;43.272;26.932;2023-04-30T06:35:11;98833.44;;;19.09;47.94
7966;BME280;4028;43.272;26.932;2023-04-30T06:37:37;98862.50;;;19.45;47.52
7966;BME280;4028;43.272;26.932;2023-04-30T06:40:03;98855.06;;;19.74;47.34
7966;BME280;4028;43.272;26.932;2023-04-30T06:42:30;98861.81;;;20.03;45.63
7966;BME280;4028;43.272;26.932;2023-04-30T06:45:00;98857.28;;;19.97;44.94
7966;BME280;4028;43.272;26.932;2023-04-30T06:47:27;98859.97;;;19.90;45.81
7966;BME280;4028;43.272;26.932;2023-04-30T06:49:52;98858.78;;;20.38;46.34
7966;BME280;4028;43.272;26.932;2023-04-30T06:52:33;98858.91;;;20.56;43.97
7966;BME280;4028;43.272;26.932;2023-04-30T06:54:59;98852.81;;;20.74;43.51
7966;BME280;4028;43.272;26.932;2023-04-30T06:57:25;98845.81;;;20.98;43.50
7966;BME280;4028;43.272;26.932;2023-04-30T06:59:52;98853.91;;;21.23;41.94
7966;BME280;4028;43.272;26.932;2023-04-30T07:02:17;98858.41;;;21.54;42.27
7966;BME280;4028;43.272;26.932;2023-04-30T07:04:43;98843.34;;;21.90;41.04
7966;BME280;4028;43.272;26.932;2023-04-30T07:07:08;98851.63;;;22.13;40.70
7966;BME280;4028;43.272;26.932;2023-04-30T07:09:34;98824.34;;;21.85;40.45
7966;BME280;4028;43.272;26.932;2023-04-30T07:12:00;98858.31;;;21.86;40.51
7966;BME280;4028;43.272;26.932;2023-04-30T07:14:26;98858.03;;;21.75;41.18
7966;BME280;4028;43.272;26.932;2023-04-30T07:16:52;98859.59;;;21.83;41.51
7966;BME280;4028;43.272;26.932;2023-04-30T07:19:18;98849.94;;;21.94;40.63
7966;BME280;4028;43.272;26.932;2023-04-30T07:21:44;98849.34;;;21.92;40.29
7966;BME280;4028;43.272;26.932;2023-04-30T07:24:09;98852.69;;;22.05;40.49
7966;BME280;4028;43.272;26.932;2023-04-30T07:26:35;98844.78;;;22.11;40.40
7966;BME280;4028;43.272;26.932;2023-04-30T07:29:01;98855.50;;;22.17;40.08
7966;BME280;4028;43.272;26.932;2023-04-30T07:31:27;98860.41;;;22.39;39.62
7966;BME280;4028;43.272;26.932;2023-04-30T07:33:53;98850.06;;;22.54;39.76
7966;BME280;4028;43.272;26.932;2023-04-30T07:36:20;98852.09;;;23.00;38.79
7966;BME280;4028;43.272;26.932;2023-04-30T07:38:45;98859.22;;;23.60;38.30
7966;BME280;4028;43.272;26.932;2023-04-30T07:41:11;98855.91;;;23.93;37.74
7966;BME280;4028;43.272;26.932;2023-04-30T07:43:37;98851.41;;;24.10;36.89
7966;BME280;4028;43.272;26.932;2023-04-30T07:46:03;98851.16;;;24.35;36.66
7966;BME280;4028;43.272;26.932;2023-04-30T07:48:29;98849.66;;;24.16;36.17
7966;BME280;4028;43.272;26.932;2023-04-30T07:50:54;98846.25;;;24.09;37.06
7966;BME280;4028;43.272;26.932;2023-04-30T07:53:22;98853.00;;;24.35;35.99
7966;BME280;4028;43.272;26.932;2023-04-30T07:55:47;98851.63;;;24.32;34.40
7966;BME280;4028;43.272;26.932;2023-04-30T07:58:13;98843.13;;;24.41;34.04
7966;BME280;4028;43.272;26.932;2023-04-30T08:00:38;98844.78;;;24.30;34.13
7966;BME280;4028;43.272;26.932;2023-04-30T08:03:04;98855.84;;;24.40;33.68
7966;BME280;4028;43.272;26.932;2023-04-30T08:05:29;98857.13;;;24.26;33.39
7966;BME280;4028;43.272;26.932;2023-04-30T08:07:54;98858.97;;;23.97;33.76
7966;BME280;4028;43.272;26.932;2023-04-30T08:10:20;98848.63;;;23.58;33.49
7966;BME280;4028;43.272;26.932;2023-04-30T08:12:45;98852.97;;;23.95;33.72
7966;BME280;4028;43.272;26.932;2023-04-30T08:15:11;98850.53;;;23.93;33.41
7966;BME280;4028;43.272;26.932;2023-04-30T08:17:37;98851.13;;;24.47;32.89
7966;BME280;4028;43.272;26.932;2023-04-30T08:20:03;98841.59;;;24.73;31.71
7966;BME280;4028;43.272;26.932;2023-04-30T08:22:29;98850.53;;;24.45;32.30
7966;BME280;4028;43.272;26.932;2023-04-30T08:24:54;98848.72;;;24.10;32.54
7966;BME280;4028;43.272;26.932;2023-04-30T08:27:21;98835.97;;;23.82;32.21
7966;BME280;4028;43.272;26.932;2023-04-30T08:29:46;98841.63;;;23.81;32.56
7966;BME280;4028;43.272;26.932;2023-04-30T08:32:12;98833.34;;;24.11;32.38
7966;BME280;4028;43.272;26.932;2023-04-30T08:34:37;98832.50;;;24.10;32.39
7966;BME280;4028;43.272;26.932;2023-04-30T08:37:05;98770.13;;;24.12;32.01
7966;BME280;4028;43.272;26.932;2023-04-30T08:39:31;98840.88;;;24.95;31.73
7966;BME280;4028;43.272;26.932;2023-04-30T08:42:01;98836.03;;;25.08;30.96
7966;BME280;4028;43.272;26.932;2023-04-30T08:44:29;98842.50;;;24.79;31.52
7966;BME280;4028;43.272;26.932;2023-04-30T08:46:56;98843.31;;;24.51;32.40
7966;BME280;4028;43.272;26.932;2023-04-30T08:49:24;98837.53;;;24.19;32.57
7966;BME280;4028;43.272;26.932;2023-04-30T08:51:50;98834.84;;;24.19;32.27
7966;BME280;4028;43.272;26.932;2023-04-30T08:54:17;98847.16;;;24.38;32.07
7966;BME280;4028;43.272;26.932;2023-04-30T08:56:46;98845.75;;;24.64;31.47
7966;BME280;4028;43.272;26.932;2023-04-30T08:59:13;98837.16;;;24.67;31.66
7966;BME280;4028;43.272;26.932;2023-04-30T09:01:39;98834.22;;;24.69;31.19
7966;BME280;4028;43.272;26.932;2023-04-30T09:04:05;98832.16;;;25.21;31.96
7966;BME280;4028;43.272;26.932;2023-04-30T09:06:32;98823.25;;;23.01;32.57
7966;BME280;4028;43.272;26.932;2023-04-30T09:09:08;98812.94;;;23.21;33.50
7966;BME280;4028;43.272;26.932;2023-04-30T09:11:33;98809.41;;;23.79;32.95
7966;BME280;4028;43.272;26.932;2023-04-30T09:14:00;98825.75;;;24.65;33.29
7966;BME280;4028;43.272;26.932;2023-04-30T09:16:29;98821.75;;;24.84;32.12
7966;BME280;4028;43.272;26.932;2023-04-30T09:19:09;98820.84;;;25.24;30.94
7966;BME280;4028;43.272;26.932;2023-04-30T09:21:35;98819.25;;;24.66;29.92
7966;BME280;4028;43.272;26.932;2023-04-30T09:24:04;98829.38;;;24.30;31.51
7966;BME280;4028;43.272;26.932;2023-04-30T09:26:35;98825.38;;;24.45;32.09
7966;BME280;4028;43.272;26.932;2023-04-30T09:29:04;98790.13;;;24.40;31.20
7966;BME280;4028;43.272;26.932;2023-04-30T09:31:44;98813.72;;;24.73;31.78
7966;BME280;4028;43.272;26.932;2023-04-30T09:34:11;98809.75;;;24.47;32.65
7966;BME280;4028;43.272;26.932;2023-04-30T09:36:50;98803.63;;;24.40;31.95
7966;BME280;4028;43.272;26.932;2023-04-30T09:39:17;98798.72;;;24.36;31.74
7966;BME280;4028;43.272;26.932;2023-04-30T09:41:43;98796.94;;;24.42;32.36
7966;BME280;4028;43.272;26.932;2023-04-30T09:44:28;98798.78;;;24.87;31.99
7966;BME280;4028;43.272;26.932;2023-04-30T09:46:55;98797.69;;;25.17;31.47
7966;BME280;4028;43.272;26.932;2023-04-30T09:49:21;98806.25;;;24.97;31.55
7966;BME280;4028;43.272;26.932;2023-04-30T09:52:00;98796.34;;;25.02;31.16
7966;BME280;4028;43.272;26.932;2023-04-30T09:54:27;98799.34;;;25.34;30.40
7966;BME280;4028;43.272;26.932;2023-04-30T09:56:55;98805.44;;;24.96;30.99
7966;BME280;4028;43.272;26.932;2023-04-30T09:59:33;98802.13;;;25.39;31.08
7966;BME280;4028;43.272;26.932;2023-04-30T10:02:05;98786.28;;;25.31;31.05
7966;BME280;4028;43.272;26.932;2023-04-30T10:07:03;98804.69;;;24.67;31.27
7966;BME280;4028;43.272;26.932;2023-04-30T10:09:40;98812.00;;;24.38;31.99
7966;BME280;4028;43.272;26.932;2023-04-30T10:12:13;98797.34;;;24.10;31.89
7966;BME280;4028;43.272;26.932;2023-04-30T10:17:12;98796.59;;;24.67;31.26
7966;BME280;4028;43.272;26.932;2023-04-30T10:19:39;98798.50;;;24.83;31.65
7966;BME280;4028;43.272;26.932;2023-04-30T10:22:08;98802.31;;;24.87;30.99
7966;BME280;4028;43.272;26.932;2023-04-30T10:24:35;98795.00;;;24.71;30.90
7966;BME280;4028;43.272;26.932;2023-04-30T10:27:02;98792.44;;;25.10;31.60
7966;BME280;4028;43.272;26.932;2023-04-30T10:29:27;98782.50;;;25.49;31.22
7966;BME280;4028;43.272;26.932;2023-04-30T10:31:53;98786.19;;;25.26;30.46
7966;BME280;4028;43.272;26.932;2023-04-30T10:34:42;98788.31;;;23.65;32.41
7966;BME280;4028;43.272;26.932;2023-04-30T10:37:26;98794.50;;;23.89;34.15
7966;BME280;4028;43.272;26.932;2023-04-30T10:39:54;98784.72;;;24.40;32.71
7966;BME280;4028;43.272;26.932;2023-04-30T10:42:20;98793.09;;;24.26;31.91
7966;BME280;4028;43.272;26.932;2023-04-30T10:44:46;98775.03;;;24.15;31.50
7966;BME280;4028;43.272;26.932;2023-04-30T10:47:13;98783.34;;;24.37;30.62
7966;BME280;4028;43.272;26.932;2023-04-30T10:49:38;98772.09;;;23.76;30.40
7966;BME280;4028;43.272;26.932;2023-04-30T10:52:09;98786.53;;;23.58;31.93
7966;BME280;4028;43.272;26.932;2023-04-30T10:54:36;98782.78;;;23.48;32.34
7966;BME280;4028;43.272;26.932;2023-04-30T10:57:13;98779.25;;;23.12;32.15
7966;BME280;4028;43.272;26.932;2023-04-30T10:59:51;98781.00;;;22.95;34.19
7966;BME280;4028;43.272;26.932;2023-04-30T11:02:17;98758.91;;;22.74;34.21
7966;BME280;4028;43.272;26.932;2023-04-30T11:07:33;98781.38;;;23.33;33.58
7966;BME280;4028;43.272;26.932;2023-04-30T11:10:00;98777.59;;;23.70;32.30
7966;BME280;4028;43.272;26.932;2023-04-30T11:12:34;98772.72;;;24.07;32.73
7966;BME280;4028;43.272;26.932;2023-04-30T11:15:11;98760.16;;;24.29;33.38
7966;BME280;4028;43.272;26.932;2023-04-30T11:17:37;98779.84;;;24.70;32.92
7966;BME280;4028;43.272;26.932;2023-04-30T11:20:03;98770.19;;;24.74;31.81
7966;BME280;4028;43.272;26.932;2023-04-30T11:22:32;98771.72;;;24.53;32.10
7966;BME280;4028;43.272;26.932;2023-04-30T11:25:17;98756.28;;;23.21;32.93
7966;BME280;4028;43.272;26.932;2023-04-30T11:27:46;98776.91;;;22.62;35.53
7966;BME280;4028;43.272;26.932;2023-04-30T11:30:16;98776.53;;;22.47;35.34
7966;BME280;4028;43.272;26.932;2023-04-30T11:32:43;98751.59;;;23.05;35.39
7966;BME280;4028;43.272;26.932;2023-04-30T11:35:12;98760.00;;;23.67;33.90
7966;BME280;4028;43.272;26.932;2023-04-30T11:37:40;98769.19;;;24.06;32.92
7966;BME280;4028;43.272;26.932;2023-04-30T11:40:11;98763.53;;;24.65;32.30
7966;BME280;4028;43.272;26.932;2023-04-30T11:42:41;98759.66;;;24.61;32.21
7966;BME280;4028;43.272;26.932;2023-04-30T11:45:16;98745.00;;;24.28;31.91
7966;BME280;4028;43.272;26.932;2023-04-30T11:50:09;98763.59;;;24.25;32.47
7966;BME280;4028;43.272;26.932;2023-04-30T11:52:36;98748.22;;;23.85;32.26
7966;BME280;4028;43.272;26.932;2023-04-30T11:55:21;98740.88;;;23.33;33.15
7966;BME280;4028;43.272;26.932;2023-04-30T11:57:49;98754.66;;;23.08;32.58
7966;BME280;4028;43.272;26.932;2023-04-30T12:00:20;98764.47;;;22.91;32.69
7966;BME280;4028;43.272;26.932;2023-04-30T12:02:47;98759.97;;;22.85;32.58
7966;BME280;4028;43.272;26.932;2023-04-30T12:05:16;98753.69;;;23.03;32.69
7966;BME280;4028;43.272;26.932;2023-04-30T12:07:50;98753.22;;;23.41;31.80
7966;BME280;4028;43.272;26.932;2023-04-30T12:10:19;98745.53;;;23.73;31.01
7966;BME280;4028;43.272;26.932;2023-04-30T12:12:46;98735.34;;;23.52;32.31
7966;BME280;4028;43.272;26.932;2023-04-30T12:15:17;98749.22;;;23.67;32.41
7966;BME280;4028;43.272;26.932;2023-04-30T12:17:44;98732.75;;;23.69;32.12
7966;BME280;4028;43.272;26.932;2023-04-30T12:20:11;98747.66;;;23.59;31.77
7966;BME280;4028;43.272;26.932;2023-04-30T12:22:37;98733.84;;;23.44;31.92
7966;BME280;4028;43.272;26.932;2023-04-30T12:25:10;98739.81;;;23.46;32.53
7966;BME280;4028;43.272;26.932;2023-04-30T12:27:43;98739.59;;;23.01;31.45
7966;BME280;4028;43.272;26.932;2023-04-30T12:30:09;98746.31;;;23.10;31.65
7966;BME280;4028;43.272;26.932;2023-04-30T12:32:43;98743.72;;;23.15;32.71
7966;BME280;4028;43.272;26.932;2023-04-30T12:35:16;98728.47;;;23.09;32.54
7966;BME280;4028;43.272;26.932;2023-04-30T12:37:46;98730.75;;;22.70;32.05
7966;BME280;4028;43.272;26.932;2023-04-30T12:40:13;98725.09;;;22.60;32.27
7966;BME280;4028;43.272;26.932;2023-04-30T12:42:41;98736.88;;;22.36;33.09
7966;BME280;4028;43.272;26.932;2023-04-30T12:45:08;98712.22;;;22.20;33.62
7966;BME280;4028;43.272;26.932;2023-04-30T12:47:37;98730.28;;;22.20;33.42
7966;BME280;4028;43.272;26.932;2023-04-30T12:50:09;98728.44;;;22.02;33.66
7966;BME280;4028;43.272;26.932;2023-04-30T12:52:37;98722.34;;;21.76;34.31
7966;BME280;4028;43.272;26.932;2023-04-30T12:55:14;98736.63;;;21.77;34.94
7966;BME280;4028;43.272;26.932;2023-04-30T12:57:40;98723.94;;;21.96;34.79
7966;BME280;4028;43.272;26.932;2023-04-30T13:00:06;98720.41;;;22.14;35.28
7966;BME280;4028;43.272;26.932;2023-04-30T13:02:32;98715.94;;;22.49;35.14
7966;BME280;4028;43.272;26.932;2023-04-30T13:04:58;98723.47;;;22.71;34.17
7966;BME280;4028;43.272;26.932;2023-04-30T13:07:23;98724.38;;;22.95;34.39
7966;BME280;4028;43.272;26.932;2023-04-30T13:09:49;98710.38;;;22.98;34.54
7966;BME280;4028;43.272;26.932;2023-04-30T13:12:15;98693.88;;;22.94;35.19
7966;BME280;4028;43.272;26.932;2023-04-30T13:14:40;98701.69;;;22.84;34.57
7966;BME280;4028;43.272;26.932;2023-04-30T13:17:06;98707.56;;;22.93;33.90
7966;BME280;4028;43.272;26.932;2023-04-30T13:19:33;98690.53;;;22.69;34.90
7966;BME280;4028;43.272;26.932;2023-04-30T13:21:59;98703.22;;;22.68;33.85
7966;BME280;4028;43.272;26.932;2023-04-30T13:24:26;98683.41;;;22.74;34.17
7966;BME280;4028;43.272;26.932;2023-04-30T13:26:51;98702.41;;;23.03;33.39
7966;BME280;4028;43.272;26.932;2023-04-30T13:29:17;98703.84;;;22.94;33.20
7966;BME280;4028;43.272;26.932;2023-04-30T13:31:45;98699.72;;;23.03;33.99
7966;BME280;4028;43.272;26.932;2023-04-30T13:34:13;98704.25;;;22.67;33.48
7966;BME280;4028;43.272;26.932;2023-04-30T13:36:39;98701.84;;;22.36;33.61
7966;BME280;4028;43.272;26.932;2023-04-30T13:39:04;98699.97;;;22.36;34.79